Time;durP1;ratioP1;P1;durP2;ratioP2;P2;SDS_P1;SDS_P2;PMS_P1;PMS_P2;Temp;Humidity;BMP_temperature;BMP_pressure;BME280_temperature;BME280_humidity;BME280_pressure;Samples;Min_cycle;Max_cycle;Signal;HPM_P1;HPM_P2
2022/09/01 00:02:26;;;;;;;5.55;3.42;;;25.30;64.40;;;;;;5059304;28;20031;-83
2022/09/01 00:04:56;;;;;;;6.40;3.60;;;25.30;64.80;;;;;;5089402;28;20111;-82
2022/09/01 00:07:22;;;;;;;7.85;3.92;;;25.40;64.30;;;;;;5079604;28;20055;-81
2022/09/01 00:09:47;;;;;;;8.10;3.30;;;25.40;65.00;;;;;;5086045;28;20060;-82
2022/09/01 00:12:13;;;;;;;5.35;3.10;;;25.50;64.80;;;;;;5075162;28;20032;-86
2022/09/01 00:14:40;;;;;;;7.13;3.67;;;25.20;65.20;;;;;;5057742;28;20021;-83
2022/09/01 00:17:09;;;;;;;6.53;3.08;;;25.10;65.40;;;;;;5081696;28;20064;-84
2022/09/01 00:19:35;;;;;;;7.45;3.88;;;25.30;64.50;;;;;;5083676;28;20407;-83
2022/09/01 00:22:02;;;;;;;6.80;3.70;;;24.70;66.40;;;;;;5071940;28;20028;-84
2022/09/01 00:24:28;;;;;;;7.15;3.70;;;24.80;65.80;;;;;;5083508;28;20077;-84
2022/09/01 00:26:54;;;;;;;6.63;3.90;;;24.90;66.30;;;;;;5056996;28;20438;-83
2022/09/01 00:29:20;;;;;;;9.63;3.53;;;25.00;64.90;;;;;;5058119;28;20025;-84
2022/09/01 00:31:46;;;;;;;7.75;4.25;;;25.00;65.40;;;;;;5056782;28;20078;-82
2022/09/01 00:34:12;;;;;;;6.60;3.50;;;25.00;65.40;;;;;;5071293;28;20028;-80
2022/09/01 00:36:38;;;;;;;6.13;3.35;;;24.90;65.50;;;;;;5066192;28;20111;-85
2022/09/01 00:39:05;;;;;;;6.63;3.70;;;24.80;64.90;;;;;;5062299;28;20035;-82
2022/09/01 00:41:34;;;;;;;8.95;3.38;;;24.80;65.50;;;;;;5074209;28;20031;-83
2022/09/01 00:44:06;;;;;;;6.93;3.60;;;25.10;64.50;;;;;;5077698;28;20012;-81
2022/09/01 00:46:35;;;;;;;6.28;3.38;;;25.30;63.40;;;;;;5083546;28;20032;-82
2022/09/01 00:49:19;;;;;;;6.20;3.47;;;25.10;64.40;;;;;;5074886;28;20031;-80
2022/09/01 00:51:50;;;;;;;7.15;3.50;;;24.60;66.50;;;;;;5073791;28;20024;-81
2022/09/01 00:54:21;;;;;;;7.88;3.80;;;24.20;67.20;;;;;;5071837;28;20023;-78
2022/09/01 00:56:48;;;;;;;6.30;3.65;;;24.30;68.10;;;;;;5074078;28;20612;-87
2022/09/01 00:59:16;;;;;;;6.82;4.05;;;24.70;67.00;;;;;;5073919;28;20032;-88
2022/09/01 01:01:42;;;;;;;5.43;3.40;;;25.10;65.90;;;;;;5061069;28;20048;-84
2022/09/01 01:04:15;;;;;;;5.60;3.70;;;25.10;65.00;;;;;;5071554;28;20028;-82
2022/09/01 01:06:57;;;;;;;5.43;3.50;;;25.20;64.50;;;;;;5083956;28;20028;-88
2022/09/01 01:09:25;;;;;;;5.47;3.33;;;25.20;63.70;;;;;;5075902;28;20074;-85
2022/09/01 01:11:51;;;;;;;5.70;3.65;;;25.40;62.90;;;;;;5055803;28;20056;-89
2022/09/01 01:14:18;;;;;;;8.98;3.72;;;25.40;62.50;;;;;;5084380;28;20020;-91
2022/09/01 01:16:47;;;;;;;6.28;3.60;;;25.50;62.70;;;;;;5091229;28;20071;-91
2022/09/01 01:25:22;;;;;;;10.95;4.85;;;24.90;66.60;;;;;;5092282;28;20082;-82
2022/09/01 01:27:48;;;;;;;6.20;3.55;;;24.90;66.70;;;;;;5057869;28;20020;-79
2022/09/01 01:30:16;;;;;;;5.20;3.67;;;25.20;65.50;;;;;;5091621;28;20032;-83
2022/09/01 01:32:44;;;;;;;7.32;4.10;;;25.30;64.70;;;;;;5090184;28;20028;-88
2022/09/01 01:35:14;;;;;;;6.50;4.03;;;25.60;64.20;;;;;;5069618;28;20485;-79
2022/09/01 01:37:47;;;;;;;8.85;4.60;;;25.60;64.60;;;;;;5084259;28;20024;-83
2022/09/01 01:40:16;;;;;;;5.85;3.53;;;25.70;64.00;;;;;;5081989;28;20486;-81
2022/09/01 01:42:44;;;;;;;8.88;4.25;;;25.60;64.90;;;;;;5074181;28;20077;-82
2022/09/01 01:45:12;;;;;;;7.20;4.25;;;25.70;64.00;;;;;;5070635;28;20078;-86
2022/09/01 01:47:38;;;;;;;6.18;4.10;;;25.70;63.80;;;;;;5091469;28;20526;-82
2022/09/01 01:50:08;;;;;;;8.05;3.80;;;25.70;63.80;;;;;;5073775;28;20490;-80
2022/09/01 01:52:34;;;;;;;6.25;3.83;;;25.80;63.60;;;;;;5065658;28;20024;-80
2022/09/01 01:55:01;;;;;;;8.18;4.65;;;25.80;64.30;;;;;;5075235;28;20074;-80
2022/09/01 01:57:30;;;;;;;6.15;3.42;;;25.70;64.60;;;;;;5089808;28;20025;-81
2022/09/01 01:59:57;;;;;;;7.40;3.78;;;25.70;63.90;;;;;;5074710;28;20029;-90
2022/09/01 02:02:23;;;;;;;4.95;3.08;;;25.50;64.40;;;;;;5067657;28;20039;-82
2022/09/01 02:04:49;;;;;;;7.28;3.92;;;25.10;65.10;;;;;;5082745;28;20024;-80
2022/09/01 02:07:15;;;;;;;6.32;3.45;;;24.60;66.20;;;;;;5092154;28;20421;-84
2022/09/01 02:09:44;;;;;;;8.55;3.75;;;24.50;66.10;;;;;;5076960;28;20032;-81
2022/09/01 02:12:10;;;;;;;5.57;3.65;;;24.40;66.60;;;;;;5072445;28;20103;-90
2022/09/01 02:14:37;;;;;;;5.68;4.20;;;24.70;65.90;;;;;;5059034;28;20108;-86
2022/09/01 02:17:05;;;;;;;13.00;5.13;;;24.90;65.10;;;;;;5092706;28;20425;-79
2022/09/01 02:19:30;;;;;;;7.30;4.10;;;25.00;64.70;;;;;;5056753;28;20040;-79
2022/09/01 02:21:58;;;;;;;7.78;4.55;;;25.00;64.60;;;;;;5054383;28;20020;-84
2022/09/01 02:24:25;;;;;;;6.63;4.13;;;25.10;64.40;;;;;;5053816;28;20032;-79
2022/09/01 02:26:51;;;;;;;7.00;4.20;;;25.20;64.10;;;;;;5064197;28;20031;-79
2022/09/01 02:29:21;;;;;;;8.00;4.30;;;25.30;64.30;;;;;;5085645;28;20032;-81
2022/09/01 02:31:52;;;;;;;7.25;4.18;;;25.30;65.20;;;;;;5095987;28;20028;-79
2022/09/01 02:34:20;;;;;;;5.00;3.63;;;25.50;64.70;;;;;;5088362;28;20036;-80
2022/09/01 02:36:50;;;;;;;9.60;4.05;;;25.30;65.20;;;;;;5077457;28;20514;-79
2022/09/01 02:39:22;;;;;;;7.97;4.30;;;25.00;65.60;;;;;;5082959;28;20040;-78
2022/09/01 02:41:48;;;;;;;7.30;4.20;;;24.70;67.20;;;;;;5057480;28;20555;-77
2022/09/01 02:44:15;;;;;;;7.18;4.72;;;24.50;67.50;;;;;;5078991;28;20035;-79
2022/09/01 02:46:43;;;;;;;6.30;4.28;;;24.70;66.80;;;;;;5088405;28;20028;-84
2022/09/01 02:49:16;;;;;;;7.32;4.22;;;24.90;66.20;;;;;;5083925;28;20020;-81
2022/09/01 02:51:45;;;;;;;7.38;3.72;;;25.00;65.80;;;;;;5078970;28;20102;-83
2022/09/01 02:54:16;;;;;;;7.78;5.05;;;25.00;65.00;;;;;;5089233;28;20028;-81
2022/09/01 02:56:46;;;;;;;8.70;4.10;;;25.00;64.70;;;;;;5075596;28;20166;-79
2022/09/01 02:59:14;;;;;;;6.90;3.97;;;25.10;64.20;;;;;;5070489;28;20093;-80
2022/09/01 03:01:41;;;;;;;6.32;4.75;;;24.90;64.30;;;;;;5073121;28;20025;-84
2022/09/01 03:04:09;;;;;;;9.90;5.13;;;24.90;64.40;;;;;;5079013;28;20020;-80
2022/09/01 03:06:36;;;;;;;8.05;4.43;;;25.00;64.10;;;;;;5089033;28;20108;-79
2022/09/01 03:09:07;;;;;;;8.15;5.00;;;25.00;64.40;;;;;;5085164;28;20028;-79
2022/09/01 03:11:36;;;;;;;7.15;4.47;;;25.10;64.20;;;;;;5077231;28;20051;-80
2022/09/01 03:14:02;;;;;;;7.88;4.00;;;25.10;64.00;;;;;;5090877;28;20029;-85
2022/09/01 03:16:31;;;;;;;9.93;4.57;;;25.20;63.90;;;;;;5077831;28;20043;-81
2022/09/01 03:18:58;;;;;;;7.47;4.38;;;24.90;65.50;;;;;;5063353;28;20041;-79
2022/09/01 03:21:24;;;;;;;8.73;4.95;;;24.50;66.70;;;;;;5063808;28;20107;-80
2022/09/01 03:23:52;;;;;;;8.68;4.47;;;24.40;67.20;;;;;;5061120;28;20124;-79
2022/09/01 03:26:20;;;;;;;8.48;4.10;;;24.60;66.70;;;;;;5074353;28;20033;-78
2022/09/01 03:28:48;;;;;;;7.53;3.35;;;24.70;66.80;;;;;;5071916;28;20028;-80
2022/09/01 03:31:14;;;;;;;7.07;4.15;;;24.30;66.40;;;;;;5077939;28;20047;-79
2022/09/01 03:33:40;;;;;;;7.07;4.30;;;24.40;66.90;;;;;;5067042;28;20080;-79
2022/09/01 03:36:07;;;;;;;5.78;4.13;;;24.50;67.10;;;;;;5061584;28;20031;-80
2022/09/01 03:38:34;;;;;;;7.15;3.38;;;24.50;66.90;;;;;;5071264;28;20036;-78
2022/09/01 03:41:05;;;;;;;7.18;4.10;;;24.30;66.60;;;;;;5082258;28;20055;-79
2022/09/01 03:43:33;;;;;;;6.50;4.50;;;23.70;69.20;;;;;;5068780;28;20058;-79
2022/09/01 03:45:59;;;;;;;5.97;4.38;;;23.90;68.60;;;;;;5084263;28;20032;-79
2022/09/01 03:48:30;;;;;;;9.05;5.35;;;24.30;67.50;;;;;;5058209;28;20040;-77
2022/09/01 03:51:01;;;;;;;7.93;5.10;;;24.60;66.30;;;;;;5066861;28;20033;-79
2022/09/01 03:53:28;;;;;;;9.32;4.20;;;24.60;66.70;;;;;;5076509;28;20115;-81
2022/09/01 03:55:58;;;;;;;8.02;5.13;;;24.40;67.50;;;;;;5057364;28;20025;-77
2022/09/01 03:58:24;;;;;;;9.43;4.50;;;24.50;67.50;;;;;;5083313;28;20016;-79
2022/09/01 04:00:54;;;;;;;8.25;4.88;;;24.60;66.80;;;;;;5075449;28;20101;-78
2022/09/01 04:03:25;;;;;;;6.30;4.00;;;24.30;67.20;;;;;;5066852;28;20115;-88
2022/09/01 04:05:52;;;;;;;5.80;3.42;;;24.20;67.20;;;;;;5074374;28;20029;-77
2022/09/01 04:08:20;;;;;;;8.35;4.60;;;23.90;67.40;;;;;;5074031;28;20029;-82
2022/09/01 04:10:51;;;;;;;8.05;4.07;;;23.80;67.90;;;;;;5073841;28;20483;-76
2022/09/01 04:13:32;;;;;;;8.55;3.75;;;24.10;66.70;;;;;;5080001;28;20024;-78
2022/09/01 04:15:58;;;;;;;11.30;4.18;;;24.30;66.00;;;;;;5082633;28;20047;-78
2022/09/01 04:18:25;;;;;;;9.13;4.10;;;24.40;65.30;;;;;;5092082;28;20429;-77
2022/09/01 04:20:56;;;;;;;7.53;4.18;;;24.60;65.10;;;;;;5092766;28;20433;-77
2022/09/01 04:23:32;;;;;;;7.05;3.90;;;24.70;64.60;;;;;;5060019;28;20074;-77
2022/09/01 04:25:59;;;;;;;7.07;3.35;;;24.70;65.70;;;;;;5069630;28;20025;-78
2022/09/01 04:28:35;;;;;;;6.80;4.20;;;24.70;65.60;;;;;;5058347;28;20012;-77
2022/09/01 04:31:06;;;;;;;5.57;3.78;;;24.30;66.60;;;;;;5055701;28;20028;-87
2022/09/01 04:33:37;;;;;;;9.40;4.95;;;24.20;67.00;;;;;;5066954;28;20046;-81
2022/09/01 04:36:26;;;;;;;7.55;4.72;;;24.20;67.30;;;;;;5069383;28;20024;-77
2022/09/01 04:38:57;;;;;;;6.22;3.92;;;24.40;66.20;;;;;;5064068;28;20033;-77
2022/09/01 04:41:29;;;;;;;7.40;3.38;;;24.50;66.30;;;;;;5058777;28;20020;-76
2022/09/01 04:43:55;;;;;;;8.13;4.00;;;24.30;65.50;;;;;;5068881;28;20395;-78
2022/09/01 04:46:22;;;;;;;5.68;4.07;;;24.20;66.50;;;;;;5055363;28;20025;-78
2022/09/01 04:48:52;;;;;;;8.27;3.60;;;24.40;66.50;;;;;;5073797;28;20036;-81
2022/09/01 04:51:19;;;;;;;6.60;4.00;;;24.50;65.50;;;;;;5073385;28;20091;-77
2022/09/01 04:53:47;;;;;;;5.55;3.40;;;24.10;67.20;;;;;;5054892;28;20056;-77
2022/09/01 04:56:17;;;;;;;5.53;3.83;;;24.00;66.70;;;;;;5076128;28;20020;-76
2022/09/01 04:58:42;;;;;;;6.55;3.50;;;23.80;67.60;;;;;;5054833;28;20044;-81
2022/09/01 05:01:17;;;;;;;5.63;4.20;;;23.60;67.80;;;;;;5078797;28;20036;-82
2022/09/01 05:03:44;;;;;;;5.82;3.88;;;23.70;67.80;;;;;;5057272;28;20368;-77
2022/09/01 05:06:14;;;;;;;6.70;4.22;;;24.00;66.60;;;;;;5060878;28;20028;-77
2022/09/01 05:08:40;;;;;;;8.23;4.07;;;24.20;65.70;;;;;;5059893;28;20110;-83
2022/09/01 05:11:06;;;;;;;7.10;4.35;;;24.30;65.80;;;;;;5065230;28;20074;-81
2022/09/01 05:13:33;;;;;;;6.78;4.15;;;24.40;65.80;;;;;;5068057;28;20037;-84
2022/09/01 05:16:11;;;;;;;6.05;4.22;;;24.60;65.30;;;;;;5073236;28;20017;-82
2022/09/01 05:18:39;;;;;;;6.43;3.75;;;24.80;65.30;;;;;;5065450;28;20403;-84
2022/09/01 05:21:10;;;;;;;6.07;4.78;;;24.60;66.00;;;;;;5066658;28;20923;-77
2022/09/01 05:23:39;;;;;;;11.30;5.32;;;24.30;66.90;;;;;;5067529;28;20028;-78
2022/09/01 05:26:16;;;;;;;8.20;3.88;;;24.40;66.40;;;;;;5081559;28;20021;-80
2022/09/01 05:28:48;;;;;;;5.05;3.20;;;24.30;65.70;;;;;;5073730;28;20017;-84
2022/09/01 05:31:18;;;;;;;6.85;3.20;;;23.90;66.20;;;;;;5093221;28;20020;-77
2022/09/01 05:33:47;;;;;;;8.10;4.03;;;23.60;68.10;;;;;;5093715;28;20501;-80
2022/09/01 05:36:15;;;;;;;5.75;3.42;;;23.60;68.40;;;;;;5071439;28;20115;-79
2022/09/01 05:38:41;;;;;;;7.95;4.80;;;23.80;67.70;;;;;;5074511;28;20391;-77
2022/09/01 05:41:09;;;;;;;6.38;4.70;;;23.80;68.70;;;;;;5075568;28;20016;-78
2022/09/01 05:43:36;;;;;;;7.95;4.13;;;24.10;67.90;;;;;;5072757;28;20028;-78
2022/09/01 05:46:07;;;;;;;6.53;4.00;;;24.60;67.00;;;;;;5084635;28;20035;-78
2022/09/01 05:48:38;;;;;;;9.43;5.13;;;24.70;66.30;;;;;;5077794;28;20043;-78
2022/09/01 05:51:05;;;;;;;5.57;4.07;;;24.60;66.40;;;;;;5056869;28;20032;-83
2022/09/01 05:53:32;;;;;;;6.50;3.45;;;24.80;65.70;;;;;;5055070;28;20025;-86
2022/09/01 05:56:05;;;;;;;7.75;3.33;;;25.00;65.20;;;;;;5054500;28;20025;-86
2022/09/01 05:58:32;;;;;;;6.25;3.33;;;25.10;64.10;;;;;;5073316;28;20048;-77
2022/09/01 06:00:58;;;;;;;4.97;3.10;;;25.20;63.60;;;;;;5057062;28;20043;-82
2022/09/01 06:03:26;;;;;;;5.47;3.60;;;25.30;63.20;;;;;;5079689;28;20154;-80
2022/09/01 06:05:54;;;;;;;5.53;3.63;;;25.50;62.70;;;;;;5084980;28;20475;-78
2022/09/01 06:08:21;;;;;;;6.13;3.65;;;25.50;62.90;;;;;;5080837;28;20550;-79
2022/09/01 06:10:49;;;;;;;7.38;3.05;;;25.50;63.00;;;;;;5081112;28;20024;-80
2022/09/01 06:13:16;;;;;;;6.70;3.10;;;25.50;63.60;;;;;;5061142;28;20086;-80
2022/09/01 06:15:43;;;;;;;7.78;3.60;;;25.30;64.40;;;;;;5085790;28;20024;-80
2022/09/01 06:18:12;;;;;;;6.75;3.53;;;25.30;64.20;;;;;;5077505;28;20125;-79
2022/09/01 06:20:39;;;;;;;6.95;4.30;;;25.30;63.60;;;;;;5071219;28;20101;-81
2022/09/01 06:23:06;;;;;;;6.35;3.92;;;25.40;63.70;;;;;;5076954;28;20024;-78
2022/09/01 06:25:35;;;;;;;9.18;3.88;;;25.50;63.70;;;;;;5074960;28;20033;-78
2022/09/01 06:28:03;;;;;;;5.75;4.38;;;25.50;63.60;;;;;;5076934;28;20028;-79
2022/09/01 06:30:35;;;;;;;4.80;3.33;;;25.70;64.00;;;;;;5074156;28;20016;-89
2022/09/01 06:33:08;;;;;;;6.78;5.10;;;25.80;64.40;;;;;;5060985;28;20024;-81
2022/09/01 06:35:34;;;;;;;6.22;4.07;;;25.80;64.10;;;;;;5086799;28;20033;-86
2022/09/01 06:38:01;;;;;;;6.88;4.32;;;25.90;63.90;;;;;;5063901;28;20479;-79
2022/09/01 06:40:27;;;;;;;6.80;4.75;;;25.90;63.80;;;;;;5058292;28;20036;-83
2022/09/01 06:42:53;;;;;;;7.90;4.07;;;26.00;63.60;;;;;;5070610;28;20032;-78
2022/09/01 06:45:22;;;;;;;7.20;4.13;;;25.90;63.20;;;;;;5066715;28;20069;-80
2022/09/01 06:47:51;;;;;;;6.38;3.80;;;25.90;62.90;;;;;;5084754;28;20024;-80
2022/09/01 06:50:20;;;;;;;7.28;4.32;;;25.90;63.20;;;;;;5069579;28;20172;-80
2022/09/01 06:52:48;;;;;;;5.22;3.70;;;25.80;63.40;;;;;;5078215;28;20016;-80
2022/09/01 06:55:15;;;;;;;6.80;3.95;;;25.70;63.70;;;;;;5077993;28;20085;-79
2022/09/01 06:57:48;;;;;;;6.03;3.58;;;25.80;63.80;;;;;;5078053;28;20024;-79
2022/09/01 07:00:19;;;;;;;5.80;3.65;;;25.80;64.10;;;;;;5077694;28;20035;-78
2022/09/01 07:02:52;;;;;;;7.32;3.40;;;25.70;65.00;;;;;;5078044;28;20027;-78
2022/09/01 07:05:18;;;;;;;7.28;3.30;;;25.60;64.00;;;;;;5078390;28;20032;-79
2022/09/01 07:07:50;;;;;;;6.68;3.10;;;25.60;64.20;;;;;;5077048;28;20027;-80
2022/09/01 07:10:21;;;;;;;7.93;3.55;;;25.40;63.80;;;;;;5083559;28;20023;-82
2022/09/01 07:12:48;;;;;;;5.43;2.97;;;25.40;63.90;;;;;;5058599;28;20036;-79
2022/09/01 07:15:18;;;;;;;5.57;2.78;;;25.20;64.20;;;;;;5056186;28;20467;-81
2022/09/01 07:17:51;;;;;;;6.28;2.95;;;24.80;65.60;;;;;;5072427;28;20055;-81
2022/09/01 07:20:38;;;;;;;5.20;3.10;;;24.70;65.20;;;;;;5079677;28;20173;-84
2022/09/01 07:23:10;;;;;;;7.05;3.40;;;25.00;65.20;;;;;;5060806;28;20089;-83
2022/09/01 07:25:42;;;;;;;6.53;3.92;;;25.10;65.70;;;;;;5061829;28;20024;-81
2022/09/01 07:28:09;;;;;;;7.85;3.20;;;25.20;65.60;;;;;;5075531;28;20040;-80
2022/09/01 07:30:42;;;;;;;6.18;3.40;;;25.30;65.40;;;;;;5073340;28;20063;-80
2022/09/01 07:33:10;;;;;;;5.32;2.75;;;25.20;65.70;;;;;;5073232;28;20077;-79
2022/09/01 07:35:37;;;;;;;5.65;3.20;;;24.90;64.80;;;;;;5072045;28;20043;-77
2022/09/01 07:38:05;;;;;;;6.13;2.90;;;24.80;65.90;;;;;;5075233;28;20024;-78
2022/09/01 07:40:31;;;;;;;5.30;2.83;;;25.10;65.40;;;;;;5076190;28;20039;-80
2022/09/01 07:42:57;;;;;;;5.55;3.17;;;25.00;65.30;;;;;;5064964;28;20021;-82
2022/09/01 07:45:24;;;;;;;6.90;2.72;;;24.90;64.80;;;;;;5066974;28;20632;-82
2022/09/01 07:47:50;;;;;;;5.90;3.10;;;24.80;65.60;;;;;;5080943;28;20039;-81
2022/09/01 07:50:17;;;;;;;5.25;2.47;;;24.90;65.60;;;;;;5076775;28;20024;-80
2022/09/01 07:52:43;;;;;;;6.60;2.75;;;25.20;64.30;;;;;;5077274;28;20039;-79
2022/09/01 07:55:13;;;;;;;5.20;2.88;;;25.50;64.10;;;;;;5076904;28;20466;-84
2022/09/01 07:57:41;;;;;;;4.28;2.80;;;25.60;64.30;;;;;;5087907;28;20021;-83
2022/09/01 08:00:12;;;;;;;5.63;3.05;;;25.70;64.70;;;;;;5057084;28;20036;-86
2022/09/01 08:02:42;;;;;;;4.53;2.67;;;25.70;64.40;;;;;;5057083;28;20048;-84
2022/09/01 08:05:12;;;;;;;5.93;2.80;;;25.70;64.40;;;;;;5056371;28;20058;-80
2022/09/01 08:07:38;;;;;;;6.35;2.60;;;25.30;64.40;;;;;;4723991;28;9999716;-80
2022/09/01 08:10:06;;;;;;;4.85;2.55;;;25.10;64.40;;;;;;5070631;28;20427;-80
2022/09/01 08:12:33;;;;;;;6.18;2.40;;;24.90;65.40;;;;;;5086678;28;20039;-82
2022/09/01 08:15:01;;;;;;;7.97;2.90;;;24.70;64.90;;;;;;5059375;28;20396;-82
2022/09/01 08:17:27;;;;;;;6.50;2.40;;;24.70;65.50;;;;;;5056225;28;20131;-83
2022/09/01 08:19:53;;;;;;;4.72;2.50;;;25.10;65.10;;;;;;5054843;28;20033;-81
2022/09/01 08:22:22;;;;;;;4.75;2.50;;;25.60;64.90;;;;;;5055443;28;20021;-82
2022/09/01 08:24:49;;;;;;;4.97;2.80;;;25.80;63.10;;;;;;5073261;28;20017;-81
2022/09/01 08:27:15;;;;;;;5.35;2.13;;;25.90;63.60;;;;;;5072996;28;20024;-81
2022/09/01 08:29:41;;;;;;;3.60;2.35;;;26.30;63.40;;;;;;5055683;28;20035;-90
2022/09/01 08:32:06;;;;;;;3.85;2.10;;;26.70;62.60;;;;;;5073418;28;20017;-87
2022/09/01 08:34:33;;;;;;;7.13;2.42;;;27.10;62.10;;;;;;5070984;28;20032;-83
2022/09/01 08:36:59;;;;;;;5.28;2.35;;;27.30;61.90;;;;;;5076155;28;20437;-89
2022/09/01 08:39:26;;;;;;;4.28;2.13;;;27.60;60.80;;;;;;5057099;28;20119;-86
2022/09/01 08:42:15;;;;;;;4.85;2.28;;;27.70;60.90;;;;;;5067732;28;20390;-85
2022/09/01 08:45:01;;;;;;;4.10;2.10;;;27.60;60.60;;;;;;5068039;28;20036;-90
2022/09/01 08:47:27;;;;;;;5.68;2.20;;;27.10;60.40;;;;;;5074165;28;20016;-84
2022/09/01 08:49:53;;;;;;;4.05;2.33;;;27.00;61.00;;;;;;5039756;28;20024;-82
2022/09/01 08:52:36;;;;;;;4.05;2.22;;;26.80;61.50;;;;;;5074994;28;20378;-85
2022/09/01 08:55:20;;;;;;;3.85;2.22;;;26.50;61.60;;;;;;5075596;28;20028;-90
2022/09/01 08:57:50;;;;;;;3.17;1.80;;;26.10;61.30;;;;;;5062178;28;20060;-92
2022/09/01 09:00:19;;;;;;;4.32;2.42;;;25.60;62.80;;;;;;5056724;28;20154;-85
2022/09/01 09:03:09;;;;;;;5.53;2.20;;;25.70;63.40;;;;;;5056153;28;20081;-88
2022/09/01 09:05:59;;;;;;;6.82;2.40;;;26.20;63.40;;;;;;5058530;28;20016;-92
2022/09/01 09:08:50;;;;;;;4.75;2.40;;;26.70;63.20;;;;;;5055591;28;20035;-88
2022/09/01 09:11:35;;;;;;;5.47;2.30;;;27.00;61.50;;;;;;5055447;28;20040;-86
2022/09/01 09:14:06;;;;;;;7.50;2.08;;;27.30;61.80;;;;;;5056079;28;20060;-92
2022/09/01 09:16:42;;;;;;;6.55;2.10;;;27.20;60.00;;;;;;5055545;28;20481;-87
2022/09/01 09:19:46;;;;;;;4.45;2.10;;;27.50;57.80;;;;;;5055790;28;20088;-86
2022/09/01 09:22:17;;;;;;;4.47;2.00;;;27.90;60.10;;;;;;5055284;28;20039;-84
2022/09/01 09:24:46;;;;;;;3.90;1.88;;;28.30;57.10;;;;;;5055117;28;20029;-83
2022/09/01 09:27:39;;;;;;;4.05;1.80;;;28.60;56.40;;;;;;5072602;28;20031;-81
2022/09/01 09:30:19;;;;;;;4.43;2.00;;;28.90;54.50;;;;;;5068475;28;20068;-83
2022/09/01 09:32:49;;;;;;;3.97;2.10;;;28.40;54.70;;;;;;5072212;28;20035;-81
2022/09/01 09:35:27;;;;;;;;;;;28.40;56.10;;;;;;5055285;28;20024;-83
2022/09/01 09:37:53;;;;;;;3.55;1.77;;;28.40;58.20;;;;;;5054057;28;19913;-83
2022/09/01 09:40:24;;;;;;;3.58;1.80;;;28.60;54.60;;;;;;5055287;28;20036;-83
2022/09/01 09:42:53;;;;;;;4.35;2.00;;;28.90;53.20;;;;;;5054641;28;20029;-81
2022/09/01 09:45:25;;;;;;;3.50;1.70;;;29.00;52.90;;;;;;5055728;28;20131;-86
2022/09/01 09:47:52;;;;;;;3.03;1.58;;;28.80;52.50;;;;;;4704516;28;10000358;-80
2022/09/01 09:50:36;;;;;;;3.97;1.60;;;28.60;50.50;;;;;;5071095;28;20311;-89
2022/09/01 09:53:27;;;;;;;2.83;1.60;;;28.10;51.00;;;;;;5055585;28;20110;-82
2022/09/01 09:56:01;;;;;;;;;;;28.10;52.60;;;;;;5072137;28;20116;-85
2022/09/01 09:58:35;;;;;;;2.90;1.60;;;28.30;49.50;;;;;;5055477;28;19905;-88
2022/09/01 10:01:15;;;;;;;4.45;1.77;;;28.60;50.40;;;;;;5073766;28;20025;-88
2022/09/01 10:03:50;;;;;;;3.97;2.00;;;29.00;50.30;;;;;;5057233;28;20024;-85
2022/09/01 10:06:37;;;;;;;4.97;2.78;;;29.30;50.50;;;;;;5055648;28;20039;-80
2022/09/01 10:09:20;;;;;;;4.00;2.00;;;29.30;49.30;;;;;;5055823;28;20554;-90
2022/09/01 10:11:51;;;;;;;3.22;1.90;;;29.30;49.60;;;;;;5072532;28;20054;-89
2022/09/01 10:14:21;;;;;;;3.10;1.70;;;29.30;49.60;;;;;;5055935;28;20036;-83
2022/09/01 10:16:52;;;;;;;5.40;1.80;;;29.50;47.60;;;;;;5073491;28;20067;-90
2022/09/01 10:19:19;;;;;;;3.00;1.90;;;29.80;50.10;;;;;;5055799;28;20036;-86
2022/09/01 10:21:45;;;;;;;3.65;1.58;;;29.70;50.00;;;;;;5056410;28;20021;-89
2022/09/01 10:24:34;;;;;;;4.18;1.60;;;29.40;49.40;;;;;;5055691;28;20028;-81
2022/09/01 10:27:09;;;;;;;4.65;3.05;;;29.10;48.60;;;;;;5055802;28;20024;-87
2022/09/01 10:29:51;;;;;;;3.17;1.60;;;29.00;49.90;;;;;;5073509;28;20082;-88
2022/09/01 10:32:31;;;;;;;2.67;1.50;;;28.90;49.10;;;;;;5054858;28;20024;-79
2022/09/01 10:34:57;;;;;;;2.80;1.48;;;28.80;46.50;;;;;;5055059;28;20052;-89
2022/09/01 10:37:23;;;;;;;5.47;1.63;;;28.80;48.90;;;;;;5055587;28;20055;-91
2022/09/01 10:40:28;;;;;;;6.22;1.50;;;29.20;49.50;;;;;;5055818;28;20029;-93
2022/09/01 10:42:56;;;;;;;3.33;1.50;;;29.40;48.10;;;;;;5058167;28;20513;-82
2022/09/01 10:45:34;;;;;;;2.83;1.40;;;29.80;48.70;;;;;;5055550;28;20124;-88
2022/09/01 10:48:33;;;;;;;4.05;1.70;;;30.10;48.80;;;;;;5055913;28;20402;-88
2022/09/01 10:51:11;;;;;;;2.72;1.50;;;30.20;47.30;;;;;;5058531;28;20029;-86
2022/09/01 10:53:45;;;;;;;3.08;1.60;;;30.10;47.60;;;;;;5066403;28;20039;-79
2022/09/01 10:56:26;;;;;;;3.00;1.60;;;30.00;46.70;;;;;;5072692;28;20027;-85
2022/09/01 10:59:07;;;;;;;5.30;1.60;;;29.90;46.10;;;;;;5069894;28;20040;-86
2022/09/01 11:01:39;;;;;;;3.33;1.70;;;29.60;45.50;;;;;;5074767;28;20024;-87
2022/09/01 11:04:06;;;;;;;5.20;1.40;;;29.70;47.00;;;;;;5079140;28;20021;-87
2022/09/01 11:23:30;;;;;;;2.63;1.33;;;28.20;47.40;;;;;;5029570;22;20149;-82
2022/09/01 11:26:03;;;;;;;3.30;1.50;;;28.80;48.30;;;;;;5002395;28;20433;-84
2022/09/01 11:28:30;;;;;;;3.30;1.60;;;29.10;45.80;;;;;;5003449;28;20117;-82
2022/09/01 11:31:08;;;;;;;2.38;1.40;;;28.90;47.60;;;;;;5021298;28;20021;-85
2022/09/01 11:33:46;;;;;;;3.97;1.60;;;29.30;47.30;;;;;;5002076;28;20409;-87
2022/09/01 11:36:18;;;;;;;5.38;1.80;;;29.50;46.30;;;;;;5022025;28;20132;-87
2022/09/01 11:38:56;;;;;;;5.65;2.25;;;29.80;46.60;;;;;;5006102;28;20030;-85
2022/09/01 11:41:55;;;;;;;6.03;1.60;;;30.10;45.70;;;;;;5000967;28;20030;-87
2022/09/01 11:44:45;;;;;;;3.63;1.50;;;30.30;45.70;;;;;;4673037;28;10000230;-90
2022/09/01 11:47:18;;;;;;;6.20;1.50;;;30.40;45.30;;;;;;4998292;28;20025;-88
2022/09/01 11:49:50;;;;;;;2.80;1.50;;;30.50;45.20;;;;;;4999167;28;20117;-91
2022/09/01 11:52:19;;;;;;;2.45;1.30;;;30.50;45.30;;;;;;5008099;28;20029;-84
2022/09/01 11:54:47;;;;;;;3.38;1.50;;;30.70;46.10;;;;;;5017248;28;20029;-87
2022/09/01 11:57:31;;;;;;;4.93;1.60;;;30.70;46.00;;;;;;5017066;28;20095;-90
2022/09/01 12:00:00;;;;;;;6.70;1.50;;;30.60;45.80;;;;;;5016711;28;20045;-77
2022/09/01 12:02:35;;;;;;;3.58;1.58;;;30.50;45.70;;;;;;5033109;28;20087;-81
2022/09/01 12:05:23;;;;;;;3.03;1.42;;;28.90;45.90;;;;;;5024478;28;20156;-88
2022/09/01 12:07:49;;;;;;;3.42;1.70;;;28.10;47.30;;;;;;4982712;28;20488;-84
2022/09/01 12:10:26;;;;;;;4.65;1.58;;;28.40;47.40;;;;;;5008019;28;20029;-87
2022/09/01 12:13:16;;;;;;;2.97;1.60;;;28.80;45.20;;;;;;4996266;28;20021;-83
2022/09/01 12:15:42;;;;;;;3.45;1.30;;;29.20;45.30;;;;;;4996134;28;20040;-84
2022/09/01 12:18:34;;;;;;;3.75;1.50;;;29.60;46.00;;;;;;4995716;28;20033;-85
2022/09/01 12:21:03;;;;;;;2.38;1.40;;;30.00;45.30;;;;;;4996465;28;20034;-84
2022/09/01 12:23:32;;;;;;;2.72;1.42;;;30.10;44.90;;;;;;4994986;28;20054;-85
2022/09/01 12:26:11;;;;;;;2.38;1.40;;;30.30;45.00;;;;;;4996178;28;20037;-83
2022/09/01 12:28:41;;;;;;;4.93;1.77;;;30.10;44.30;;;;;;4999068;28;20120;-82
2022/09/01 12:31:14;;;;;;;2.83;1.67;;;29.40;44.90;;;;;;4996237;28;20018;-84
2022/09/01 12:33:42;;;;;;;3.97;1.45;;;29.50;44.80;;;;;;5013707;28;20026;-86
2022/09/01 12:36:28;;;;;;;2.78;1.40;;;29.50;44.70;;;;;;4993928;28;20067;-89
2022/09/01 12:39:13;;;;;;;2.72;1.42;;;29.90;44.60;;;;;;4672456;23;10002483;-83
2022/09/01 12:45:42;;;;;;;3.58;1.50;;;30.40;44.40;;;;;;5014416;28;20073;-83
2022/09/01 12:48:30;;;;;;;5.25;1.42;;;30.60;45.40;;;;;;5199104;22;20013;-86
2022/09/01 12:50:58;;;;;;;2.80;1.50;;;30.80;44.50;;;;;;5017796;28;20119;-87
2022/09/01 12:53:27;;;;;;;3.17;1.58;;;30.50;43.20;;;;;;5016936;28;20088;-88
2022/09/01 12:55:59;;;;;;;2.90;1.60;;;30.40;42.30;;;;;;5016688;28;20044;-85
2022/09/01 12:58:28;;;;;;;4.40;2.08;;;29.40;44.60;;;;;;5017228;28;20040;-86
2022/09/01 13:01:05;;;;;;;3.30;1.60;;;29.30;43.80;;;;;;5017046;28;20435;-87
2022/09/01 13:03:32;;;;;;;3.85;1.50;;;29.70;44.50;;;;;;5016766;28;20026;-89
2022/09/01 13:06:00;;;;;;;2.63;1.40;;;30.00;44.50;;;;;;5033491;28;20031;-87
2022/09/01 13:08:29;;;;;;;5.47;1.50;;;30.10;44.10;;;;;;5016844;28;20026;-91
2022/09/01 13:11:08;;;;;;;4.05;1.52;;;30.00;43.40;;;;;;5035731;28;20025;-87
2022/09/01 13:13:34;;;;;;;2.50;1.42;;;30.20;42.90;;;;;;5053450;28;20025;-90
2022/09/01 13:16:07;;;;;;;2.63;1.50;;;30.40;42.40;;;;;;5036984;28;20051;-86
2022/09/01 13:18:33;;;;;;;2.83;1.42;;;30.10;44.00;;;;;;5036468;28;20025;-88
2022/09/01 13:20:59;;;;;;;3.67;1.60;;;30.00;42.40;;;;;;5053718;28;20180;-84
2022/09/01 13:23:25;;;;;;;3.13;1.65;;;30.30;43.20;;;;;;5035836;28;20070;-86
2022/09/01 13:25:51;;;;;;;5.93;1.73;;;30.50;42.70;;;;;;5036200;28;20041;-85
2022/09/01 13:28:19;;;;;;;2.78;1.35;;;30.60;42.00;;;;;;5053544;28;20044;-87
2022/09/01 13:30:51;;;;;;;4.95;1.40;;;30.80;42.90;;;;;;5035927;28;20171;-87
2022/09/01 13:33:17;;;;;;;4.20;1.52;;;30.80;43.00;;;;;;5036321;28;20025;-86
2022/09/01 13:35:43;;;;;;;5.75;1.52;;;30.40;43.30;;;;;;5053707;28;20086;-88